Estación Meteorológica Peña el Pijo (Robertgarden) [ 12/14/19 08:47:03 CET ]

Fecha Hora Presion(HPa) Temp (°C) Humedad % Rocio (°C) Viento ( m/s) Direccion Lluvia 1Hora(mm) Lluvia 24H(mm) LLuvia Total(mm)
2019-Sep-02 01:01:48 1010.000 16.3 75 11.9         385.10
2019-Sep-02 02:01:46 1010.100 15.4 78 11.6         385.10
2019-Sep-02 03:02:12 1010.000 15.3 79 11.7         385.10
2019-Sep-02 04:02:04 1010.000 14.5 81 11.3         385.10
2019-Sep-02 05:02:02 1010.000 14.5 82 11.5         385.10
2019-Sep-02 06:02:15 1009.700 13.9 82 10.9         385.10
2019-Sep-02 07:01:46 1010.100 13.3 83 10.4         385.10
2019-Sep-02 08:01:50 1011.200 14.1 83 11.2         385.10
2019-Sep-02 09:01:43 1011.800 14.9 83 12.0         385.10
2019-Sep-02 10:01:36 1012.000 19.4 76 15.1         385.10
2019-Sep-02 11:01:48 1012.300 21.4 71 15.9         385.10
2019-Sep-02 12:01:43 1012.400 22.5 58 13.8         385.10
2019-Sep-02 13:01:51 1012.300 25.9 49 14.4         385.10
2019-Sep-02 14:01:24 1012.300 28.9 44 15.4         385.10
2019-Sep-02 15:01:50 1012.400 25.3 47 13.1         385.10
2019-Sep-02 16:01:45 1011.700 24.5 53 14.3         385.10
2019-Sep-02 17:01:53 1011.800 28.1 45 15.0         385.10
2019-Sep-02 18:02:00 1012.800 20.7 72 15.4     4.14 4.14 389.24
2019-Sep-02 19:01:41 1012.000 16.3 79 12.7     0.51 5.18 390.28
2019-Sep-02 20:02:03 1012.100 16.5 83 13.6       5.18 390.28
2019-Sep-02 21:01:47 1012.400 16.2 84 13.5       5.18 390.28
2019-Sep-02 22:01:45 1013.100 15.8 86 13.5       5.18 390.28
2019-Sep-02 23:01:50 1013.300 14.9 87 12.8       5.18 390.28

Temperatura Máxima:28°    Temperatura Mínima:13°
Presión Máxima:1013.300 Hpa    Presión Mínima:1009.700 Hpa


Volver